Latest Coastal Weather Observations for Cato Island

IDQ60701

Issued at 6:01 pm EST Sunday 14 February 2016 (issued every 10 minutes, with the page automatically refreshed every 10 minutes)

About coastal observations | Map of coastal stations | Coastal observations for QLD | Marine services | Other Formats
Station Details ID: 200601 Name: CATO ISLAND Lat: -23.25 Lon: 155.54 Height: 6.3 m
Data from the previous 72 hours. | See also: Recent months for locations in Queensland
Date/Time
EST
Temp

°C
Wind Pressure Rain
since 9am
mm
Weather Cloud Vis
km
Sea
Height
m
Swell
Dir
 
Speed
knots
Gust
knots
hPa Trend Height
m
Period
s
Dir
14/06:00pm 26.4 S 20 24 1004.0 - - - - - - - - -
14/05:30pm 26.5 S 19 23 1003.7 - - - - - - - - -
14/05:00pm 26.7 S 20 23 1003.5 - - - - - - - - -
14/04:30pm 26.7 S 20 23 1003.3 - - - - - - - - -
14/04:00pm 26.9 S 20 24 1003.4 - - - - - - - - -
14/03:30pm 26.9 S 18 20 1003.4 - - - - - - - - -
14/03:00pm 26.7 S 18 21 1003.6 - - - - - - - - -
14/02:30pm 26.7 S 16 20 1003.4 - - - - - - - - -
14/02:00pm 25.6 S 13 16 1003.7 - - - - - - - - -
14/01:30pm 24.7 S 12 14 1003.7 - - - - - - - - -
14/01:00pm 22.2 SSE 22 27 1004.0 - - - - - - - - -
14/12:30pm 23.6 S 29 35 1003.8 - - - - - - - - -
14/12:26pm 25.2 S 30 35 1003.6 - - - - - - - - -
14/12:24pm 25.8 NNW 15 26 1003.8 - - - - - - - - -
14/12:00pm 26.6 NNW 15 17 1003.9 - - - - - - - - -
14/11:30am 27.1 S 17 20 1003.9 - - - - - - - - -
14/11:00am 26.1 SSW 14 17 1004.3 - - - - - - - - -
14/10:30am 24.6 SSW 18 21 1004.5 - - - - - - - - -
14/10:00am 26.2 S 18 23 1004.5 - - - - - - - - -
14/09:30am 27.5 S 16 19 1004.3 - - - - - - - - -
14/09:00am 27.2 S 16 18 1004.3 - - - - - - - - -
14/08:30am 27.0 S 16 18 1004.3 - - - - - - - - -
14/08:00am 26.8 SSE 16 18 1004.1 - - - - - - - - -
14/07:30am 26.8 SSE 16 18 1003.7 - - - - - - - - -
14/07:00am 26.8 SSE 15 17 1003.6 - - - - - - - - -
14/06:30am 26.6 SSE 15 17 1003.2 - - - - - - - - -
14/06:00am 26.3 SE 17 19 1003.2 - - - - - - - - -
14/05:30am 26.4 SE 18 20 1002.7 - - - - - - - - -
14/05:00am 26.3 SE 17 21 1002.7 - - - - - - - - -
14/04:30am 26.5 SE 19 21 1002.3 - - - - - - - - -
14/04:00am 26.6 SE 17 20 1002.2 - - - - - - - - -
14/03:30am 26.3 SE 19 23 1001.8 - - - - - - - - -
14/03:00am 26.3 SE 20 23 1002.0 - - - - - - - - -
14/02:30am 26.5 SE 18 22 1002.0 - - - - - - - - -
14/02:00am 25.3 SSE 20 30 1002.4 - - - - - - - - -
14/01:55am 26.2 SE 18 29 1002.2 - - - - - - - - -
14/01:30am 26.4 SE 15 19 1002.6 - - - - - - - - -
14/01:00am 26.5 SE 16 19 1003.0 - - - - - - - - -
14/12:30am 26.3 ESE 16 18 1003.3 - - - - - - - - -
14/12:00am 26.3 SE 18 20 1003.7 - - - - - - - - -
 
Date/Time
EST
Temp

°C
Wind Pressure Rain
since 9am
mm
Weather Cloud Vis
km
Sea
Height
m
Swell
Dir
 
Speed
knots
Gust
knots
hPa Trend Height
m
Period
s
Dir
13/11:30pm 26.2 ESE 18 21 1003.8 - - - - - - - - -
13/11:00pm 26.3 SE 17 19 1004.0 - - - - - - - - -
13/10:30pm 26.2 ESE 17 19 1004.2 - - - - - - - - -
13/10:26pm 26.2 ESE 16 19 1004.3 - - - - - - - - -
13/10:00pm 25.1 SSE 21 26 1004.6 - - - - - - - - -
13/09:30pm 26.4 SE 17 21 1004.3 - - - - - - - - -
13/09:00pm 26.4 SE 15 18 1004.3 - - - - - - - - -
13/08:30pm 26.5 SE 15 17 1004.2 - - - - - - - - -
13/08:00pm 26.6 SE 15 17 1004.2 - - - - - - - - -
13/07:30pm 26.6 SE 15 17 1003.8 - - - - - - - - -
13/07:00pm 26.5 SE 15 17 1003.4 - - - - - - - - -
13/06:30pm 26.0 SSE 14 16 1003.1 - - - - - - - - -
13/06:00pm 26.7 SE 16 19 1003.1 - - - - - - - - -
13/05:30pm 26.7 SSE 16 19 1002.8 - - - - - - - - -
13/05:00pm 26.7 SE 13 15 1002.6 - - - - - - - - -
13/04:30pm 26.7 SE 14 15 1002.2 - - - - - - - - -
13/04:00pm 26.7 SE 14 16 1002.1 - - - - - - - - -
13/03:30pm 26.7 SSE 14 16 1002.0 - - - - - - - - -
13/03:00pm 26.2 ESE 15 17 1002.2 - - - - - - - - -
13/02:30pm 26.3 SE 16 18 1002.2 - - - - - - - - -
13/02:00pm 26.1 SE 17 19 1002.7 - - - - - - - - -
13/01:30pm 25.6 ESE 20 23 1002.8 - - - - - - - - -
13/01:00pm 25.4 ESE 16 19 1002.9 - - - - - - - - -
13/12:37pm 25.6 E 20 31 1003.0 - - - - - - - - -
13/12:30pm 26.0 E 21 25 1003.1 - - - - - - - - -
13/12:26pm 26.1 E 23 25 1003.0 - - - - - - - - -
13/12:00pm 27.2 SE 19 22 1003.5 - - - - - - - - -
13/11:30am 27.7 ESE 19 21 1003.8 - - - - - - - - -
13/11:00am 27.4 ESE 19 22 1004.2 - - - - - - - - -
13/10:30am 27.6 ESE 18 20 1004.4 - - - - - - - - -
13/10:00am 27.5 ESE 19 22 1004.6 - - - - - - - - -
13/09:30am 27.5 ESE 20 22 1004.6 - - - - - - - - -
13/09:00am 27.3 ESE 21 25 1004.6 - - - - - - - - -
13/08:30am 27.2 ESE 22 25 1004.1 - - - - - - - - -
13/08:00am 27.2 ESE 21 24 1004.2 - - - - - - - - -
13/07:30am 27.2 ESE 22 25 1004.0 - - - - - - - - -
13/07:00am 26.8 ESE 21 27 1004.2 - - - - - - - - -
13/06:30am 26.6 ESE 23 26 1003.8 - - - - - - - - -
13/06:00am 26.6 ESE 22 25 1003.6 - - - - - - - - -
13/05:30am 26.7 ESE 22 25 1003.0 - - - - - - - - -
13/05:00am 26.4 ESE 22 25 1002.6 - - - - - - - - -
13/04:30am 26.3 ESE 22 25 1002.6 - - - - - - - - -
13/04:00am 26.4 ESE 21 23 1002.7 - - - - - - - - -
13/03:30am 26.2 ESE 22 25 1002.2 - - - - - - - - -
13/03:00am 26.2 ESE 24 27 1002.6 - - - - - - - - -
13/02:30am 26.1 ESE 19 22 1003.3 - - - - - - - - -
13/02:00am 26.1 ESE 19 22 1003.3 - - - - - - - - -
13/01:30am 25.8 ESE 13 16 1003.7 - - - - - - - - -
13/01:00am 25.3 ESE 20 24 1004.3 - - - - - - - - -
13/12:30am 26.0 SE 18 21 1004.5 - - - - - - - - -
13/12:00am 25.9 ESE 21 24 1004.8 - - - - - - - - -
 
Date/Time
EST
Temp

°C
Wind Pressure Rain
since 9am
mm
Weather Cloud Vis
km
Sea
Height
m
Swell
Dir
 
Speed
knots
Gust
knots
hPa Trend Height
m
Period
s
Dir
12/11:30pm 25.6 ESE 23 26 1005.2 - - - - - - - - -
12/11:00pm 26.0 SE 20 23 1005.8 - - - - - - - - -
12/10:30pm 25.9 SE 23 26 1006.0 - - - - - - - - -
12/10:00pm 26.3 SE 23 25 1006.1 - - - - - - - - -
12/09:30pm 26.4 SE 21 24 1006.0 - - - - - - - - -
12/09:00pm 26.3 SE 20 23 1006.4 - - - - - - - - -
12/08:30pm 26.2 ESE 21 24 1006.4 - - - - - - - - -
12/08:00pm 26.0 SE 21 24 1006.3 - - - - - - - - -
12/07:30pm 25.1 SSE 23 27 1006.3 - - - - - - - - -
12/07:27pm 24.8 SSE 24 27 1006.2 - - - - - - - - -
12/07:00pm 25.5 ESE 20 26 1006.2 - - - - - - - - -
12/06:30pm 26.4 SE 22 29 1005.8 - - - - - - - - -
12/06:00pm 26.8 SE 23 26 1005.7 - - - - - - - - -
12/05:30pm 26.6 SE 21 24 1005.2 - - - - - - - - -
12/05:00pm 26.6 ESE 23 27 1005.2 - - - - - - - - -
12/04:30pm 26.9 SE 22 26 1004.7 - - - - - - - - -
12/04:00pm 27.0 SE 24 26 1004.6 - - - - - - - - -
12/03:30pm 27.0 SE 22 25 1004.5 - - - - - - - - -
12/03:00pm 27.2 ESE 21 24 1004.8 - - - - - - - - -
12/02:30pm 26.8 SE 20 23 1004.8 - - - - - - - - -
12/02:00pm 26.7 SE 21 25 1004.9 - - - - - - - - -
12/01:30pm 27.3 ESE 22 25 1005.1 - - - - - - - - -
12/01:00pm 27.4 ESE 20 23 1005.5 - - - - - - - - -
12/12:30pm 27.2 ESE 22 25 1005.7 - - - - - - - - -
12/12:00pm 27.4 ESE 22 25 1005.9 - - - - - - - - -
12/11:30am 27.3 ESE 22 25 1006.4 - - - - - - - - -
12/11:00am 27.2 ESE 21 25 1006.7 - - - - - - - - -
12/10:30am 27.1 ESE 22 26 1006.8 - - - - - - - - -
12/10:00am 27.1 ESE 23 25 1007.1 - - - - - - - - -
12/09:30am 26.7 ESE 22 25 1007.3 - - - - - - - - -
12/09:00am 26.7 ESE 23 25 1007.4 - - - - - - - - -
12/08:30am 26.8 ESE 22 25 1007.3 - - - - - - - - -
12/08:00am 26.7 ESE 23 27 1007.4 - - - - - - - - -
12/07:30am 26.6 ESE 22 25 1007.0 - - - - - - - - -
12/07:00am 26.7 ESE 22 25 1007.1 - - - - - - - - -
12/06:30am 26.7 ESE 21 24 1006.7 - - - - - - - - -
12/06:00am 26.4 ESE 20 24 1006.6 - - - - - - - - -
12/05:30am 26.1 ESE 20 23 1006.3 - - - - - - - - -
12/05:00am 26.3 ESE 18 20 1006.2 - - - - - - - - -
12/04:30am 26.0 ESE 19 22 1006.0 - - - - - - - - -
12/04:00am 26.1 ESE 19 22 1006.0 - - - - - - - - -
12/03:30am 26.2 ESE 19 22 1005.9 - - - - - - - - -
12/03:00am 26.0 ESE 19 22 1006.0 - - - - - - - - -
12/02:30am 26.0 E 19 22 1005.9 - - - - - - - - -
12/02:00am 25.7 E 15 17 1006.1 - - - - - - - - -
12/01:30am 25.2 E 17 21 1006.2 - - - - - - - - -
12/01:00am 26.0 E 19 23 1006.4 - - - - - - - - -
12/12:30am 26.3 E 21 24 1006.5 - - - - - - - - -
12/12:00am 26.3 E 19 24 1006.9 - - - - - - - - -
 
Date/Time
EST
Temp

°C
Wind Pressure Rain
since 9am
mm
Weather Cloud Vis
km
Sea
Height
m
Swell
Dir
 
Speed
knots
Gust
knots
hPa Trend Height
m
Period
s
Dir
11/11:30pm 26.2 ESE 20 23 1007.0 - - - - - - - - -
11/11:00pm 26.3 ESE 20 23 1007.5 - - - - - - - - -
11/10:30pm 26.3 ESE 20 23 1007.3 - - - - - - - - -
11/10:00pm 26.4 ESE 20 23 1007.3 - - - - - - - - -
11/09:30pm 26.2 ESE 21 25 1007.2 - - - - - - - - -
11/09:00pm 26.5 ESE 20 24 1007.3 - - - - - - - - -
11/08:30pm 26.5 ESE 20 23 1007.1 - - - - - - - - -
11/08:00pm 26.5 ESE 20 22 1007.3 - - - - - - - - -
11/07:30pm 26.4 ESE 20 23 1006.9 - - - - - - - - -
11/07:00pm 26.0 ESE 18 22 1007.0 - - - - - - - - -
11/06:30pm 26.2 ESE 21 25 1006.7 - - - - - - - - -

Other Formats:

Comma delimited format used in spreadsheet applications
http://www.bom.gov.au/fwo/IDQ60701/IDQ60701.94394.axf

JavaScript Object Notation format (JSON) in row-major order
http://www.bom.gov.au/fwo/IDQ60701/IDQ60701.94394.json